sensor_id;sensor_type;location;lat;lon;timestamp;temperature;humidity
49901;DHT22;35789;48.414;12.768;2022-12-05T00:00:00;3.9;99.9
49901;DHT22;35789;48.414;12.768;2022-12-05T00:05:00;4.0;99.9
49901;DHT22;35789;48.414;12.768;2022-12-05T00:10:00;4.0;99.9
49901;DHT22;35789;48.414;12.768;2022-12-05T00:15:00;3.9;99.9
49901;DHT22;35789;48.414;12.768;2022-12-05T00:20:00;3.8;99.9
49901;DHT22;35789;48.414;12.768;2022-12-05T00:25:00;3.9;99.9
49901;DHT22;35789;48.414;12.768;2022-12-05T00:30:00;3.8;99.9
49901;DHT22;35789;48.414;12.768;2022-12-05T00:35:00;3.8;99.9
49901;DHT22;35789;48.414;12.768;2022-12-05T00:40:00;3.8;99.9
49901;DHT22;35789;48.414;12.768;2022-12-05T00:45:00;3.7;99.9
49901;DHT22;35789;48.414;12.768;2022-12-05T00:50:00;3.8;99.9
49901;DHT22;35789;48.414;12.768;2022-12-05T00:55:00;3.7;99.9
49901;DHT22;35789;48.414;12.768;2022-12-05T01:00:00;3.7;99.9
49901;DHT22;35789;48.414;12.768;2022-12-05T01:05:00;3.7;99.9
49901;DHT22;35789;48.414;12.768;2022-12-05T01:10:00;3.6;99.9
49901;DHT22;35789;48.414;12.768;2022-12-05T01:15:00;3.7;99.9
49901;DHT22;35789;48.414;12.768;2022-12-05T01:20:00;3.6;99.9
49901;DHT22;35789;48.414;12.768;2022-12-05T01:25:00;3.6;99.9
49901;DHT22;35789;48.414;12.768;2022-12-05T01:30:00;3.6;99.9
49901;DHT22;35789;48.414;12.768;2022-12-05T01:35:00;3.6;99.9
49901;DHT22;35789;48.414;12.768;2022-12-05T01:40:00;3.6;99.9
49901;DHT22;35789;48.414;12.768;2022-12-05T01:45:02;3.6;99.9
49901;DHT22;35789;48.414;12.768;2022-12-05T01:50:00;3.7;99.9
49901;DHT22;35789;48.414;12.768;2022-12-05T01:55:02;3.6;99.9
49901;DHT22;35789;48.414;12.768;2022-12-05T02:00:01;3.6;99.9
49901;DHT22;35789;48.414;12.768;2022-12-05T02:05:01;3.7;99.9
49901;DHT22;35789;48.414;12.768;2022-12-05T02:10:00;3.6;99.9
49901;DHT22;35789;48.414;12.768;2022-12-05T02:15:07;3.6;99.9
49901;DHT22;35789;48.414;12.768;2022-12-05T02:20:07;3.7;99.9
49901;DHT22;35789;48.414;12.768;2022-12-05T02:30:01;3.4;99.9
49901;DHT22;35789;48.414;12.768;2022-12-05T02:35:02;3.3;99.9
49901;DHT22;35789;48.414;12.768;2022-12-05T02:40:02;3.4;99.9
49901;DHT22;35789;48.414;12.768;2022-12-05T02:45:00;3.4;99.9
49901;DHT22;35789;48.414;12.768;2022-12-05T02:50:00;3.3;99.9
49901;DHT22;35789;48.414;12.768;2022-12-05T02:55:00;3.3;99.9
49901;DHT22;35789;48.414;12.768;2022-12-05T03:00:00;3.4;99.9
49901;DHT22;35789;48.414;12.768;2022-12-05T03:05:03;3.4;99.9
49901;DHT22;35789;48.414;12.768;2022-12-05T03:10:01;3.4;99.9
49901;DHT22;35789;48.414;12.768;2022-12-05T03:15:00;3.3;99.9
49901;DHT22;35789;48.414;12.768;2022-12-05T03:20:02;3.3;99.9
49901;DHT22;35789;48.414;12.768;2022-12-05T03:25:00;3.2;99.9
49901;DHT22;35789;48.414;12.768;2022-12-05T03:30:01;3.2;99.9
49901;DHT22;35789;48.414;12.768;2022-12-05T03:35:02;3.2;99.9
49901;DHT22;35789;48.414;12.768;2022-12-05T03:40:02;3.3;99.9
49901;DHT22;35789;48.414;12.768;2022-12-05T03:45:02;3.3;99.9
49901;DHT22;35789;48.414;12.768;2022-12-05T03:50:02;3.2;99.9
49901;DHT22;35789;48.414;12.768;2022-12-05T03:55:00;3.2;99.9
49901;DHT22;35789;48.414;12.768;2022-12-05T04:00:00;3.2;99.9
49901;DHT22;35789;48.414;12.768;2022-12-05T04:05:02;3.1;99.9
49901;DHT22;35789;48.414;12.768;2022-12-05T04:10:01;3.1;99.9
49901;DHT22;35789;48.414;12.768;2022-12-05T04:15:01;3.1;99.9
49901;DHT22;35789;48.414;12.768;2022-12-05T04:20:01;3.1;99.9
49901;DHT22;35789;48.414;12.768;2022-12-05T04:25:00;3.1;99.9
49901;DHT22;35789;48.414;12.768;2022-12-05T04:30:00;3.1;99.9
49901;DHT22;35789;48.414;12.768;2022-12-05T04:35:00;3.0;99.9
49901;DHT22;35789;48.414;12.768;2022-12-05T04:40:00;3.0;99.9
49901;DHT22;35789;48.414;12.768;2022-12-05T04:45:01;2.9;99.9
49901;DHT22;35789;48.414;12.768;2022-12-05T04:50:00;3.0;99.9
49901;DHT22;35789;48.414;12.768;2022-12-05T04:55:01;2.9;99.9
49901;DHT22;35789;48.414;12.768;2022-12-05T05:00:00;2.8;99.9
49901;DHT22;35789;48.414;12.768;2022-12-05T05:05:00;2.9;99.9
49901;DHT22;35789;48.414;12.768;2022-12-05T05:10:00;2.7;99.9
49901;DHT22;35789;48.414;12.768;2022-12-05T05:15:00;2.8;99.9
49901;DHT22;35789;48.414;12.768;2022-12-05T05:20:00;2.8;99.9
49901;DHT22;35789;48.414;12.768;2022-12-05T05:25:00;2.7;99.9
49901;DHT22;35789;48.414;12.768;2022-12-05T05:30:00;2.8;99.9
49901;DHT22;35789;48.414;12.768;2022-12-05T05:35:00;2.7;99.9
49901;DHT22;35789;48.414;12.768;2022-12-05T05:40:00;2.6;99.9
49901;DHT22;35789;48.414;12.768;2022-12-05T05:45:00;2.6;99.9
49901;DHT22;35789;48.414;12.768;2022-12-05T05:50:00;2.6;99.9
49901;DHT22;35789;48.414;12.768;2022-12-05T05:55:00;2.7;99.9
49901;DHT22;35789;48.414;12.768;2022-12-05T06:00:00;2.5;99.9
49901;DHT22;35789;48.414;12.768;2022-12-05T06:05:00;2.6;99.9
49901;DHT22;35789;48.414;12.768;2022-12-05T06:10:00;2.6;99.9
49901;DHT22;35789;48.414;12.768;2022-12-05T06:15:00;2.5;99.9
49901;DHT22;35789;48.414;12.768;2022-12-05T06:20:00;2.5;99.9
49901;DHT22;35789;48.414;12.768;2022-12-05T06:25:00;2.5;99.9
49901;DHT22;35789;48.414;12.768;2022-12-05T06:30:00;2.5;99.9
49901;DHT22;35789;48.414;12.768;2022-12-05T06:35:00;2.5;99.9
49901;DHT22;35789;48.414;12.768;2022-12-05T06:40:00;2.4;99.9
49901;DHT22;35789;48.414;12.768;2022-12-05T06:45:00;2.5;99.9
49901;DHT22;35789;48.414;12.768;2022-12-05T06:50:00;2.5;99.9
49901;DHT22;35789;48.414;12.768;2022-12-05T06:55:00;2.5;99.9
49901;DHT22;35789;48.414;12.768;2022-12-05T07:00:00;2.5;99.9
49901;DHT22;35789;48.414;12.768;2022-12-05T07:05:00;2.5;99.9
49901;DHT22;35789;48.414;12.768;2022-12-05T07:10:00;2.6;99.9
49901;DHT22;35789;48.414;12.768;2022-12-05T07:15:00;2.6;99.9
49901;DHT22;35789;48.414;12.768;2022-12-05T07:20:00;2.6;99.9
49901;DHT22;35789;48.414;12.768;2022-12-05T07:25:00;2.6;99.9
49901;DHT22;35789;48.414;12.768;2022-12-05T07:30:00;2.6;99.9
49901;DHT22;35789;48.414;12.768;2022-12-05T07:35:00;2.6;99.9
49901;DHT22;35789;48.414;12.768;2022-12-05T07:40:00;2.6;99.9
49901;DHT22;35789;48.414;12.768;2022-12-05T07:45:00;2.6;99.9
49901;DHT22;35789;48.414;12.768;2022-12-05T07:50:00;2.5;99.9
49901;DHT22;35789;48.414;12.768;2022-12-05T07:55:00;2.6;99.9
49901;DHT22;35789;48.414;12.768;2022-12-05T08:00:00;2.5;99.9
49901;DHT22;35789;48.414;12.768;2022-12-05T08:05:00;2.5;99.9
49901;DHT22;35789;48.414;12.768;2022-12-05T08:10:00;2.5;99.9
49901;DHT22;35789;48.414;12.768;2022-12-05T08:15:00;2.6;99.9
49901;DHT22;35789;48.414;12.768;2022-12-05T08:20:00;2.5;99.9
49901;DHT22;35789;48.414;12.768;2022-12-05T08:25:00;2.6;99.9
49901;DHT22;35789;48.414;12.768;2022-12-05T08:30:00;2.6;99.9
49901;DHT22;35789;48.414;12.768;2022-12-05T08:35:00;2.6;99.9
49901;DHT22;35789;48.414;12.768;2022-12-05T08:40:00;2.7;99.9
49901;DHT22;35789;48.414;12.768;2022-12-05T08:45:00;2.8;99.9
49901;DHT22;35789;48.414;12.768;2022-12-05T08:50:00;2.9;99.9
49901;DHT22;35789;48.414;12.768;2022-12-05T08:55:00;3.0;99.9
49901;DHT22;35789;48.414;12.768;2022-12-05T09:00:00;2.9;99.9
49901;DHT22;35789;48.414;12.768;2022-12-05T09:05:00;3.0;99.9
49901;DHT22;35789;48.414;12.768;2022-12-05T09:10:00;3.0;99.9
49901;DHT22;35789;48.414;12.768;2022-12-05T09:15:00;3.1;99.9
49901;DHT22;35789;48.414;12.768;2022-12-05T09:20:00;3.2;99.9
49901;DHT22;35789;48.414;12.768;2022-12-05T09:25:00;3.1;99.9
49901;DHT22;35789;48.414;12.768;2022-12-05T09:30:00;3.2;99.9
49901;DHT22;35789;48.414;12.768;2022-12-05T09:35:00;3.2;99.9
49901;DHT22;35789;48.414;12.768;2022-12-05T09:40:00;3.2;99.9
49901;DHT22;35789;48.414;12.768;2022-12-05T09:45:02;3.3;99.9
49901;DHT22;35789;48.414;12.768;2022-12-05T09:50:00;3.3;99.9
49901;DHT22;35789;48.414;12.768;2022-12-05T09:55:02;3.3;99.9
49901;DHT22;35789;48.414;12.768;2022-12-05T10:00:00;3.2;99.9
49901;DHT22;35789;48.414;12.768;2022-12-05T10:05:01;3.2;99.9
49901;DHT22;35789;48.414;12.768;2022-12-05T10:10:03;3.2;99.9
49901;DHT22;35789;48.414;12.768;2022-12-05T10:15:00;3.2;99.9
49901;DHT22;35789;48.414;12.768;2022-12-05T10:20:02;3.2;99.9
49901;DHT22;35789;48.414;12.768;2022-12-05T10:25:01;3.2;99.9
49901;DHT22;35789;48.414;12.768;2022-12-05T10:30:02;3.4;99.9
49901;DHT22;35789;48.414;12.768;2022-12-05T10:35:01;3.4;99.9
49901;DHT22;35789;48.414;12.768;2022-12-05T10:40:00;3.5;99.9
49901;DHT22;35789;48.414;12.768;2022-12-05T10:45:01;3.5;99.9
49901;DHT22;35789;48.414;12.768;2022-12-05T10:50:02;3.5;99.9
49901;DHT22;35789;48.414;12.768;2022-12-05T10:55:01;3.6;99.9
49901;DHT22;35789;48.414;12.768;2022-12-05T11:00:08;3.6;99.9
49901;DHT22;35789;48.414;12.768;2022-12-05T11:05:00;3.6;99.9
49901;DHT22;35789;48.414;12.768;2022-12-05T11:10:01;3.6;99.9
49901;DHT22;35789;48.414;12.768;2022-12-05T11:15:01;3.7;99.9
49901;DHT22;35789;48.414;12.768;2022-12-05T11:20:00;3.8;99.9
49901;DHT22;35789;48.414;12.768;2022-12-05T11:25:00;3.9;99.9
49901;DHT22;35789;48.414;12.768;2022-12-05T11:30:01;4.0;99.9
49901;DHT22;35789;48.414;12.768;2022-12-05T11:35:03;4.0;99.9
49901;DHT22;35789;48.414;12.768;2022-12-05T11:40:00;4.1;99.9
49901;DHT22;35789;48.414;12.768;2022-12-05T11:55:02;4.2;99.9
49901;DHT22;35789;48.414;12.768;2022-12-05T12:00:02;4.2;99.9
49901;DHT22;35789;48.414;12.768;2022-12-05T12:05:01;4.2;99.9
49901;DHT22;35789;48.414;12.768;2022-12-05T12:10:03;4.1;99.9
49901;DHT22;35789;48.414;12.768;2022-12-05T12:15:02;4.2;99.9
49901;DHT22;35789;48.414;12.768;2022-12-05T12:20:03;4.1;99.9
49901;DHT22;35789;48.414;12.768;2022-12-05T12:25:03;4.2;99.9
49901;DHT22;35789;48.414;12.768;2022-12-05T12:30:02;4.2;99.9
49901;DHT22;35789;48.414;12.768;2022-12-05T12:35:07;4.3;99.9
49901;DHT22;35789;48.414;12.768;2022-12-05T12:40:02;4.3;99.9
49901;DHT22;35789;48.414;12.768;2022-12-05T12:45:04;4.3;99.9
49901;DHT22;35789;48.414;12.768;2022-12-05T12:50:02;4.2;99.9
49901;DHT22;35789;48.414;12.768;2022-12-05T12:55:03;unavailable;unavailable
49901;DHT22;35789;48.414;12.768;2022-12-05T13:00:02;4.2;99.9
49901;DHT22;35789;48.414;12.768;2022-12-05T13:05:00;4.2;99.9
49901;DHT22;35789;48.414;12.768;2022-12-05T13:10:01;4.1;99.9
49901;DHT22;35789;48.414;12.768;2022-12-05T13:15:00;4.1;99.9
49901;DHT22;35789;48.414;12.768;2022-12-05T13:20:00;4.1;99.9
49901;DHT22;35789;48.414;12.768;2022-12-05T13:25:00;4.1;99.9
49901;DHT22;35789;48.414;12.768;2022-12-05T13:30:00;4.1;99.9
49901;DHT22;35789;48.414;12.768;2022-12-05T13:35:00;4.1;99.9
49901;DHT22;35789;48.414;12.768;2022-12-05T13:40:00;4.1;99.9
49901;DHT22;35789;48.414;12.768;2022-12-05T13:45:04;4.0;99.9
49901;DHT22;35789;48.414;12.768;2022-12-05T13:50:01;4.0;99.9
49901;DHT22;35789;48.414;12.768;2022-12-05T13:55:01;4.0;99.9
49901;DHT22;35789;48.414;12.768;2022-12-05T14:00:00;4.0;99.9
49901;DHT22;35789;48.414;12.768;2022-12-05T14:05:00;4.0;99.9
49901;DHT22;35789;48.414;12.768;2022-12-05T14:10:00;3.9;99.9
49901;DHT22;35789;48.414;12.768;2022-12-05T14:15:00;4.0;99.9
49901;DHT22;35789;48.414;12.768;2022-12-05T14:20:06;3.9;99.9
49901;DHT22;35789;48.414;12.768;2022-12-05T14:25:02;4.0;99.9
49901;DHT22;35789;48.414;12.768;2022-12-05T14:30:01;3.9;99.9
49901;DHT22;35789;48.414;12.768;2022-12-05T14:35:00;3.9;99.9
49901;DHT22;35789;48.414;12.768;2022-12-05T14:40:01;3.9;99.9
49901;DHT22;35789;48.414;12.768;2022-12-05T14:45:00;3.9;99.9
49901;DHT22;35789;48.414;12.768;2022-12-05T14:50:20;3.9;99.9
49901;DHT22;35789;48.414;12.768;2022-12-05T14:55:01;3.9;99.9
49901;DHT22;35789;48.414;12.768;2022-12-05T15:00:00;3.9;99.9
49901;DHT22;35789;48.414;12.768;2022-12-05T15:05:02;3.9;99.9
49901;DHT22;35789;48.414;12.768;2022-12-05T15:10:01;3.8;99.9
49901;DHT22;35789;48.414;12.768;2022-12-05T15:15:03;3.8;99.9
49901;DHT22;35789;48.414;12.768;2022-12-05T15:20:02;3.8;99.9
49901;DHT22;35789;48.414;12.768;2022-12-05T15:30:00;3.8;99.9
49901;DHT22;35789;48.414;12.768;2022-12-05T15:35:00;3.8;99.9
49901;DHT22;35789;48.414;12.768;2022-12-05T15:40:01;3.8;99.9
49901;DHT22;35789;48.414;12.768;2022-12-05T15:50:00;3.7;99.9
49901;DHT22;35789;48.414;12.768;2022-12-05T15:55:01;3.7;99.9
49901;DHT22;35789;48.414;12.768;2022-12-05T16:00:00;3.7;99.9
49901;DHT22;35789;48.414;12.768;2022-12-05T16:05:00;3.7;99.9
49901;DHT22;35789;48.414;12.768;2022-12-05T16:10:00;3.7;99.9
49901;DHT22;35789;48.414;12.768;2022-12-05T16:15:01;3.8;99.9
49901;DHT22;35789;48.414;12.768;2022-12-05T16:25:00;3.7;99.9
49901;DHT22;35789;48.414;12.768;2022-12-05T16:35:00;3.7;99.9
49901;DHT22;35789;48.414;12.768;2022-12-05T16:40:00;3.6;99.9
49901;DHT22;35789;48.414;12.768;2022-12-05T16:45:00;3.6;99.9
49901;DHT22;35789;48.414;12.768;2022-12-05T16:50:04;3.6;99.9
49901;DHT22;35789;48.414;12.768;2022-12-05T16:55:00;3.6;99.9
49901;DHT22;35789;48.414;12.768;2022-12-05T17:00:00;3.6;99.9
49901;DHT22;35789;48.414;12.768;2022-12-05T17:05:00;3.6;99.9
49901;DHT22;35789;48.414;12.768;2022-12-05T17:10:00;3.6;99.9
49901;DHT22;35789;48.414;12.768;2022-12-05T17:15:00;3.6;99.9
49901;DHT22;35789;48.414;12.768;2022-12-05T17:20:00;3.6;99.9
49901;DHT22;35789;48.414;12.768;2022-12-05T17:25:00;3.7;99.9
49901;DHT22;35789;48.414;12.768;2022-12-05T17:30:00;3.7;99.9
49901;DHT22;35789;48.414;12.768;2022-12-05T17:35:00;3.7;99.9
49901;DHT22;35789;48.414;12.768;2022-12-05T17:40:00;3.6;99.9
49901;DHT22;35789;48.414;12.768;2022-12-05T17:45:00;3.6;99.9
49901;DHT22;35789;48.414;12.768;2022-12-05T17:50:00;3.6;99.9
49901;DHT22;35789;48.414;12.768;2022-12-05T17:55:00;3.7;99.9
49901;DHT22;35789;48.414;12.768;2022-12-05T18:00:00;3.6;99.9
49901;DHT22;35789;48.414;12.768;2022-12-05T18:05:00;3.6;99.9
49901;DHT22;35789;48.414;12.768;2022-12-05T18:10:00;3.5;99.9
49901;DHT22;35789;48.414;12.768;2022-12-05T18:15:00;3.5;99.9
49901;DHT22;35789;48.414;12.768;2022-12-05T18:20:00;3.6;99.9
49901;DHT22;35789;48.414;12.768;2022-12-05T18:25:00;3.7;99.9
49901;DHT22;35789;48.414;12.768;2022-12-05T18:30:00;3.7;99.9
49901;DHT22;35789;48.414;12.768;2022-12-05T18:35:00;3.7;99.9
49901;DHT22;35789;48.414;12.768;2022-12-05T18:40:00;3.7;99.9
49901;DHT22;35789;48.414;12.768;2022-12-05T18:45:00;3.7;99.9
49901;DHT22;35789;48.414;12.768;2022-12-05T18:50:00;3.8;99.9
49901;DHT22;35789;48.414;12.768;2022-12-05T18:55:00;3.8;99.9
49901;DHT22;35789;48.414;12.768;2022-12-05T19:00:00;3.8;99.9
49901;DHT22;35789;48.414;12.768;2022-12-05T19:05:00;3.7;99.9
49901;DHT22;35789;48.414;12.768;2022-12-05T19:10:00;3.7;99.9
49901;DHT22;35789;48.414;12.768;2022-12-05T19:15:00;3.7;99.9
49901;DHT22;35789;48.414;12.768;2022-12-05T19:20:00;3.6;99.9
49901;DHT22;35789;48.414;12.768;2022-12-05T19:25:00;3.6;99.9
49901;DHT22;35789;48.414;12.768;2022-12-05T19:30:00;3.6;99.9
49901;DHT22;35789;48.414;12.768;2022-12-05T19:35:00;3.6;99.9
49901;DHT22;35789;48.414;12.768;2022-12-05T19:40:00;3.6;99.9
49901;DHT22;35789;48.414;12.768;2022-12-05T19:45:00;3.6;99.9
49901;DHT22;35789;48.414;12.768;2022-12-05T19:50:00;3.6;99.9
49901;DHT22;35789;48.414;12.768;2022-12-05T19:55:00;3.5;99.9
49901;DHT22;35789;48.414;12.768;2022-12-05T20:00:00;3.5;99.9
49901;DHT22;35789;48.414;12.768;2022-12-05T20:05:00;3.4;99.9
49901;DHT22;35789;48.414;12.768;2022-12-05T20:10:00;3.3;99.9
49901;DHT22;35789;48.414;12.768;2022-12-05T20:15:00;3.3;99.9
49901;DHT22;35789;48.414;12.768;2022-12-05T20:20:00;3.2;99.9
49901;DHT22;35789;48.414;12.768;2022-12-05T20:25:00;3.0;99.9
49901;DHT22;35789;48.414;12.768;2022-12-05T20:30:00;2.7;99.9
49901;DHT22;35789;48.414;12.768;2022-12-05T20:35:00;2.8;99.9
49901;DHT22;35789;48.414;12.768;2022-12-05T20:40:00;2.8;99.9
49901;DHT22;35789;48.414;12.768;2022-12-05T20:45:00;2.9;99.9
49901;DHT22;35789;48.414;12.768;2022-12-05T20:50:00;2.8;99.9
49901;DHT22;35789;48.414;12.768;2022-12-05T20:55:00;2.9;99.9
49901;DHT22;35789;48.414;12.768;2022-12-05T21:00:00;3.0;99.9
49901;DHT22;35789;48.414;12.768;2022-12-05T21:05:00;2.9;99.9
49901;DHT22;35789;48.414;12.768;2022-12-05T21:10:00;2.8;99.9
49901;DHT22;35789;48.414;12.768;2022-12-05T21:15:00;2.7;99.9
49901;DHT22;35789;48.414;12.768;2022-12-05T21:20:00;2.6;99.9
49901;DHT22;35789;48.414;12.768;2022-12-05T21:25:00;2.6;99.9
49901;DHT22;35789;48.414;12.768;2022-12-05T21:30:00;2.4;99.9
49901;DHT22;35789;48.414;12.768;2022-12-05T21:35:00;2.3;99.9
49901;DHT22;35789;48.414;12.768;2022-12-05T21:40:00;2.2;99.9
49901;DHT22;35789;48.414;12.768;2022-12-05T21:45:00;2.2;99.9
49901;DHT22;35789;48.414;12.768;2022-12-05T21:50:00;2.3;99.9
49901;DHT22;35789;48.414;12.768;2022-12-05T21:55:00;2.3;99.9
49901;DHT22;35789;48.414;12.768;2022-12-05T22:00:00;2.3;99.9
49901;DHT22;35789;48.414;12.768;2022-12-05T22:05:00;2.3;99.9
49901;DHT22;35789;48.414;12.768;2022-12-05T22:10:00;2.4;99.9
49901;DHT22;35789;48.414;12.768;2022-12-05T22:15:00;2.4;99.9
49901;DHT22;35789;48.414;12.768;2022-12-05T22:20:00;2.5;99.9
49901;DHT22;35789;48.414;12.768;2022-12-05T22:25:00;2.5;99.9
49901;DHT22;35789;48.414;12.768;2022-12-05T22:30:00;2.6;99.9
49901;DHT22;35789;48.414;12.768;2022-12-05T22:35:00;2.6;99.9
49901;DHT22;35789;48.414;12.768;2022-12-05T22:40:00;2.6;99.9
49901;DHT22;35789;48.414;12.768;2022-12-05T22:45:00;2.6;99.9
49901;DHT22;35789;48.414;12.768;2022-12-05T22:50:00;2.6;99.9
49901;DHT22;35789;48.414;12.768;2022-12-05T22:55:00;2.6;99.9
49901;DHT22;35789;48.414;12.768;2022-12-05T23:00:00;2.5;99.9
49901;DHT22;35789;48.414;12.768;2022-12-05T23:05:00;2.4;99.9
49901;DHT22;35789;48.414;12.768;2022-12-05T23:10:00;2.5;99.9
49901;DHT22;35789;48.414;12.768;2022-12-05T23:15:00;2.5;99.9
49901;DHT22;35789;48.414;12.768;2022-12-05T23:20:00;2.5;99.9
49901;DHT22;35789;48.414;12.768;2022-12-05T23:25:00;2.6;99.9
49901;DHT22;35789;48.414;12.768;2022-12-05T23:30:00;2.6;99.9
49901;DHT22;35789;48.414;12.768;2022-12-05T23:35:00;2.7;99.9
49901;DHT22;35789;48.414;12.768;2022-12-05T23:40:00;2.6;99.9
49901;DHT22;35789;48.414;12.768;2022-12-05T23:45:00;2.7;99.9
49901;DHT22;35789;48.414;12.768;2022-12-05T23:50:00;2.8;99.9
49901;DHT22;35789;48.414;12.768;2022-12-05T23:55:00;2.7;99.9
